Time;durP1;ratioP1;P1;durP2;ratioP2;P2;SDS_P1;SDS_P2;PMS_P1;PMS_P2;Temp;Humidity;BMP_temperature;BMP_pressure;BME280_temperature;BME280_humidity;BME280_pressure;Samples;Min_cycle;Max_cycle;Signal;HPM_P1;HPM_P2
2021/10/29 00:00:51;;;;;;;10.68;6.13;;;;;;;;;;5031069;28;20049;-64
2021/10/29 00:03:22;;;;;;;11.60;6.50;;;;;;;;;;5030971;28;20118;-65
2021/10/29 00:05:51;;;;;;;10.95;6.25;;;;;;;;;;5030214;28;20136;-64
2021/10/29 00:08:19;;;;;;;10.93;6.13;;;;;;;;;;5031103;28;20088;-67
2021/10/29 00:10:47;;;;;;;11.02;6.68;;;;;;;;;;5028751;28;20089;-65
2021/10/29 00:13:15;;;;;;;9.75;5.97;;;;;;;;;;5026130;28;20120;-66
2021/10/29 00:15:44;;;;;;;10.85;5.95;;;;;;;;;;5031156;28;20049;-65
2021/10/29 00:18:12;;;;;;;10.02;5.97;;;;;;;;;;5031338;28;20099;-65
2021/10/29 00:20:42;;;;;;;9.95;5.93;;;;;;;;;;5030572;28;20064;-71
2021/10/29 00:23:10;;;;;;;10.77;6.95;;;;;;;;;;5029800;28;20050;-65
2021/10/29 00:25:38;;;;;;;12.00;6.70;;;;;;;;;;5030755;28;20049;-65
2021/10/29 00:28:07;;;;;;;11.07;5.80;;;;;;;;;;5031285;28;20076;-68
2021/10/29 00:30:35;;;;;;;12.43;6.53;;;;;;;;;;5030913;28;20367;-65
2021/10/29 00:33:03;;;;;;;9.77;5.90;;;;;;;;;;5030191;28;20059;-67
2021/10/29 00:35:32;;;;;;;10.23;5.95;;;;;;;;;;5029880;28;20471;-64
2021/10/29 00:38:01;;;;;;;10.02;6.30;;;;;;;;;;5030542;28;20084;-66
2021/10/29 00:40:30;;;;;;;8.85;5.32;;;;;;;;;;5029118;28;20051;-73
2021/10/29 00:42:58;;;;;;;7.75;5.32;;;;;;;;;;5043299;28;20136;-68
2021/10/29 00:45:26;;;;;;;12.77;6.70;;;;;;;;;;5015122;28;20061;-68
2021/10/29 00:47:55;;;;;;;8.43;5.75;;;;;;;;;;5029561;28;20487;-67
2021/10/29 00:50:23;;;;;;;12.40;6.22;;;;;;;;;;5030610;28;20042;-69
2021/10/29 00:52:51;;;;;;;10.07;6.13;;;;;;;;;;5028915;28;20072;-65
2021/10/29 00:55:21;;;;;;;10.88;6.18;;;;;;;;;;5030503;28;20532;-76
2021/10/29 00:57:51;;;;;;;11.30;6.97;;;;;;;;;;5031265;28;20136;-65
2021/10/29 01:00:20;;;;;;;9.32;6.20;;;;;;;;;;5029217;28;20072;-65
2021/10/29 01:02:49;;;;;;;10.75;6.07;;;;;;;;;;5028966;28;20061;-64
2021/10/29 01:05:17;;;;;;;9.48;6.15;;;;;;;;;;5029183;28;20485;-67
2021/10/29 01:07:46;;;;;;;10.43;6.28;;;;;;;;;;5028993;28;20584;-65
2021/10/29 01:10:14;;;;;;;10.48;5.88;;;;;;;;;;5029184;28;20072;-65
2021/10/29 01:12:44;;;;;;;10.30;5.97;;;;;;;;;;5030904;28;20050;-65
2021/10/29 01:15:12;;;;;;;10.93;5.95;;;;;;;;;;5030563;28;20539;-65
2021/10/29 01:17:41;;;;;;;12.27;6.10;;;;;;;;;;5028149;28;20737;-67
2021/10/29 01:20:09;;;;;;;10.85;6.47;;;;;;;;;;5029144;28;20465;-64
2021/10/29 01:22:39;;;;;;;9.85;5.80;;;;;;;;;;5029220;28;20060;-67
2021/10/29 01:25:09;;;;;;;10.23;5.25;;;;;;;;;;5029710;28;20092;-67
2021/10/29 01:27:38;;;;;;;9.88;6.00;;;;;;;;;;5029149;28;20072;-65
2021/10/29 01:30:06;;;;;;;10.10;6.63;;;;;;;;;;5023625;28;20486;-68
2021/10/29 01:32:45;;;;;;;11.10;5.50;;;;;;;;;;1669557;28;10022619;-65
2021/10/29 01:35:14;;;;;;;9.00;5.50;;;;;;;;;;4661406;28;10000897;-65
2021/10/29 01:37:44;;;;;;;8.88;5.40;;;;;;;;;;5029067;28;20161;-68
2021/10/29 01:40:14;;;;;;;11.23;5.47;;;;;;;;;;5029050;28;20448;-67
2021/10/29 01:42:42;;;;;;;10.57;5.32;;;;;;;;;;5041900;28;20080;-65
2021/10/29 01:45:11;;;;;;;12.85;6.53;;;;;;;;;;5029370;28;20137;-67
2021/10/29 01:47:39;;;;;;;9.48;4.50;;;;;;;;;;5029682;28;20196;-65
2021/10/29 01:50:09;;;;;;;10.73;5.50;;;;;;;;;;5028705;28;20135;-68
2021/10/29 01:52:37;;;;;;;10.80;5.22;;;;;;;;;;5028779;28;20100;-67
2021/10/29 01:55:08;;;;;;;9.52;5.28;;;;;;;;;;5020710;28;20389;-66
2021/10/29 01:57:36;;;;;;;8.88;4.75;;;;;;;;;;5029192;28;20092;-67
2021/10/29 02:00:05;;;;;;;10.10;5.65;;;;;;;;;;5027684;28;20076;-65
2021/10/29 02:02:34;;;;;;;11.07;5.65;;;;;;;;;;5028766;28;20473;-68
2021/10/29 02:05:02;;;;;;;7.43;4.80;;;;;;;;;;5029378;28;20076;-66
2021/10/29 02:07:31;;;;;;;8.75;5.05;;;;;;;;;;5028755;28;20523;-65
2021/10/29 02:09:59;;;;;;;9.52;5.40;;;;;;;;;;5029069;28;20081;-65
2021/10/29 02:12:29;;;;;;;8.98;5.50;;;;;;;;;;5027276;28;20058;-65
2021/10/29 02:14:58;;;;;;;9.05;5.50;;;;;;;;;;5028839;28;20390;-68
2021/10/29 02:17:26;;;;;;;9.70;5.32;;;;;;;;;;5029424;28;20133;-68
2021/10/29 02:19:55;;;;;;;8.85;5.40;;;;;;;;;;5029395;28;20069;-70
2021/10/29 02:22:24;;;;;;;9.73;5.43;;;;;;;;;;5028219;28;20144;-70
2021/10/29 02:24:52;;;;;;;8.45;5.03;;;;;;;;;;5028595;28;20569;-70
2021/10/29 02:27:20;;;;;;;9.55;5.45;;;;;;;;;;5023505;28;20068;-68
2021/10/29 02:29:50;;;;;;;8.15;5.25;;;;;;;;;;5031595;28;20076;-68
2021/10/29 02:32:18;;;;;;;10.85;6.20;;;;;;;;;;5026823;28;20129;-64
2021/10/29 02:34:46;;;;;;;8.80;6.00;;;;;;;;;;5026669;28;20666;-68
2021/10/29 02:37:14;;;;;;;12.80;5.68;;;;;;;;;;5033200;28;20049;-65
2021/10/29 02:39:43;;;;;;;9.10;6.10;;;;;;;;;;5031777;28;20539;-67
2021/10/29 02:42:11;;;;;;;7.50;5.03;;;;;;;;;;5032675;28;20050;-65
2021/10/29 02:44:41;;;;;;;11.05;6.00;;;;;;;;;;5031918;28;20132;-65
2021/10/29 02:47:11;;;;;;;11.90;5.60;;;;;;;;;;5032043;28;20077;-65
2021/10/29 02:49:40;;;;;;;8.48;4.93;;;;;;;;;;5032216;28;20487;-65
2021/10/29 02:52:09;;;;;;;10.45;5.72;;;;;;;;;;5032277;28;20195;-64
2021/10/29 02:54:37;;;;;;;10.35;5.32;;;;;;;;;;5031653;28;20141;-69
2021/10/29 02:57:06;;;;;;;8.30;5.35;;;;;;;;;;5032898;28;20132;-65
2021/10/29 02:59:34;;;;;;;10.60;5.53;;;;;;;;;;5031767;28;20053;-65
2021/10/29 03:02:03;;;;;;;7.97;5.65;;;;;;;;;;5031813;28;20132;-65
2021/10/29 03:04:33;;;;;;;10.50;5.75;;;;;;;;;;5031406;28;20045;-66
2021/10/29 03:07:01;;;;;;;7.78;4.90;;;;;;;;;;5049083;28;20045;-68
2021/10/29 03:09:30;;;;;;;6.95;4.88;;;;;;;;;;5026906;28;20124;-65
2021/10/29 03:11:58;;;;;;;9.63;5.65;;;;;;;;;;5032027;28;20148;-65
2021/10/29 03:14:26;;;;;;;8.95;5.50;;;;;;;;;;5029655;28;20053;-65
2021/10/29 03:16:55;;;;;;;9.07;5.60;;;;;;;;;;5029150;28;20521;-70
2021/10/29 03:19:24;;;;;;;7.55;5.35;;;;;;;;;;5030312;28;20132;-71
2021/10/29 03:21:54;;;;;;;10.65;5.68;;;;;;;;;;5031378;28;20053;-72
2021/10/29 03:24:22;;;;;;;9.25;5.97;;;;;;;;;;5032548;28;20133;-65
2021/10/29 03:26:50;;;;;;;9.68;5.68;;;;;;;;;;5033201;28;20050;-66
2021/10/29 03:29:19;;;;;;;8.02;5.50;;;;;;;;;;5031187;28;20151;-65
2021/10/29 03:31:47;;;;;;;9.25;5.60;;;;;;;;;;5026418;28;20129;-66
2021/10/29 03:34:15;;;;;;;9.65;5.38;;;;;;;;;;5028437;28;20136;-66
2021/10/29 03:36:44;;;;;;;7.93;4.80;;;;;;;;;;5031383;28;20144;-71
2021/10/29 03:39:16;;;;;;;10.32;5.68;;;;;;;;;;5030716;28;20092;-65
2021/10/29 03:41:50;;;;;;;7.47;5.20;;;;;;;;;;5031488;28;20136;-66
2021/10/29 03:44:23;;;;;;;8.95;5.20;;;;;;;;;;5030438;28;20052;-67
2021/10/29 03:46:54;;;;;;;10.73;6.00;;;;;;;;;;5031234;28;20122;-70
2021/10/29 03:49:28;;;;;;;9.40;5.45;;;;;;;;;;5037601;28;20095;-66
2021/10/29 03:51:59;;;;;;;9.23;5.90;;;;;;;;;;5031890;28;20059;-69
2021/10/29 03:54:31;;;;;;;8.15;5.40;;;;;;;;;;5030334;28;20145;-67
2021/10/29 03:57:11;;;;;;;8.35;5.38;;;;;;;;;;5030986;28;20131;-65
2021/10/29 03:59:39;;;;;;;7.65;5.20;;;;;;;;;;5023728;28;20124;-67
2021/10/29 04:02:10;;;;;;;8.77;5.30;;;;;;;;;;5028634;28;20424;-66
2021/10/29 04:04:39;;;;;;;7.68;4.72;;;;;;;;;;5030647;28;20045;-65
2021/10/29 04:07:08;;;;;;;8.40;5.00;;;;;;;;;;5031125;28;20081;-66
2021/10/29 04:09:38;;;;;;;7.28;4.60;;;;;;;;;;5030297;28;20091;-66
2021/10/29 04:12:06;;;;;;;8.02;4.93;;;;;;;;;;5030891;28;20156;-67
2021/10/29 04:14:35;;;;;;;9.30;4.82;;;;;;;;;;5031011;28;20103;-71
2021/10/29 04:17:04;;;;;;;9.18;4.93;;;;;;;;;;5029559;28;20069;-66
2021/10/29 04:19:33;;;;;;;8.35;5.65;;;;;;;;;;5031481;28;20102;-66
2021/10/29 04:22:01;;;;;;;8.23;4.82;;;;;;;;;;5031274;28;20401;-66
2021/10/29 04:24:29;;;;;;;8.30;4.93;;;;;;;;;;5029790;28;20553;-67
2021/10/29 04:27:01;;;;;;;7.10;4.13;;;;;;;;;;5029648;28;20087;-68
2021/10/29 04:29:35;;;;;;;7.63;4.55;;;;;;;;;;5030632;28;20563;-66
2021/10/29 04:32:04;;;;;;;7.45;4.82;;;;;;;;;;5025245;28;20069;-65
2021/10/29 04:34:32;;;;;;;9.45;4.47;;;;;;;;;;5030835;28;20073;-66
2021/10/29 04:37:01;;;;;;;6.97;4.95;;;;;;;;;;5024905;28;20488;-69
2021/10/29 04:39:29;;;;;;;6.95;4.35;;;;;;;;;;5028550;28;20565;-67
2021/10/29 04:41:59;;;;;;;7.55;4.93;;;;;;;;;;5028884;28;20077;-66
2021/10/29 04:44:27;;;;;;;9.35;5.18;;;;;;;;;;5028228;28;20136;-67
2021/10/29 04:46:56;;;;;;;7.85;4.50;;;;;;;;;;5028491;28;20053;-71
2021/10/29 04:49:24;;;;;;;8.32;4.68;;;;;;;;;;5029502;28;20045;-74
2021/10/29 04:51:53;;;;;;;7.72;4.45;;;;;;;;;;5029907;28;20508;-66
2021/10/29 04:54:21;;;;;;;7.07;4.50;;;;;;;;;;5029477;28;20065;-66
2021/10/29 04:56:49;;;;;;;7.43;4.45;;;;;;;;;;5027066;28;20149;-79
2021/10/29 04:59:19;;;;;;;6.57;4.28;;;;;;;;;;5026315;28;20049;-66
2021/10/29 05:01:47;;;;;;;7.28;4.72;;;;;;;;;;5025936;28;20141;-66
2021/10/29 05:04:18;;;;;;;7.43;4.75;;;;;;;;;;5025491;28;20060;-72
2021/10/29 05:06:47;;;;;;;4.88;3.72;;;;;;;;;;5028689;28;20140;-69
2021/10/29 05:09:15;;;;;;;6.72;4.57;;;;;;;;;;5028035;28;20071;-68
2021/10/29 05:11:43;;;;;;;8.10;4.85;;;;;;;;;;5027406;28;20519;-68
2021/10/29 05:14:11;;;;;;;6.50;4.30;;;;;;;;;;5026325;28;20053;-75
2021/10/29 05:16:41;;;;;;;7.03;4.90;;;;;;;;;;5025193;28;20563;-69
2021/10/29 05:19:09;;;;;;;6.60;4.65;;;;;;;;;;5026231;28;20061;-68
2021/10/29 05:21:38;;;;;;;8.32;4.85;;;;;;;;;;5024808;28;20140;-69
2021/10/29 05:24:07;;;;;;;6.88;4.47;;;;;;;;;;5022903;28;20045;-66
2021/10/29 05:26:36;;;;;;;9.05;4.97;;;;;;;;;;5025040;28;20068;-66
2021/10/29 05:29:05;;;;;;;7.22;4.72;;;;;;;;;;5026694;28;20148;-72
2021/10/29 05:31:34;;;;;;;9.88;4.80;;;;;;;;;;5024696;28;20069;-69
2021/10/29 05:34:04;;;;;;;7.95;4.40;;;;;;;;;;5025005;28;20053;-69
2021/10/29 05:36:32;;;;;;;8.88;4.95;;;;;;;;;;5025708;28;20114;-66
2021/10/29 05:39:01;;;;;;;7.10;4.35;;;;;;;;;;5025226;28;20060;-70
2021/10/29 05:41:29;;;;;;;7.00;4.40;;;;;;;;;;5026104;28;20072;-65
2021/10/29 05:43:57;;;;;;;7.03;4.38;;;;;;;;;;5026456;28;20073;-72
2021/10/29 05:46:30;;;;;;;6.50;4.40;;;;;;;;;;5031729;28;20125;-68
2021/10/29 05:48:59;;;;;;;6.93;3.90;;;;;;;;;;5026190;28;20156;-72
2021/10/29 05:51:28;;;;;;;7.35;4.75;;;;;;;;;;5025916;28;20045;-68
2021/10/29 05:54:12;;;;;;;7.00;4.30;;;;;;;;;;5025937;28;20091;-69
2021/10/29 05:56:40;;;;;;;5.22;3.65;;;;;;;;;;5028169;28;20091;-67
2021/10/29 05:59:09;;;;;;;5.85;4.10;;;;;;;;;;5025211;28;20060;-68
2021/10/29 06:01:41;;;;;;;7.97;4.93;;;;;;;;;;5025236;28;20164;-73
2021/10/29 06:04:09;;;;;;;8.18;4.72;;;;;;;;;;5028774;28;20049;-70
2021/10/29 06:06:39;;;;;;;6.57;4.40;;;;;;;;;;5031109;28;20138;-69
2021/10/29 06:09:07;;;;;;;8.45;4.80;;;;;;;;;;5029286;28;20099;-72
2021/10/29 06:11:36;;;;;;;6.60;4.40;;;;;;;;;;5021951;28;20057;-69
2021/10/29 06:14:05;;;;;;;9.25;4.95;;;;;;;;;;5029850;28;20523;-66
2021/10/29 06:16:33;;;;;;;7.93;4.50;;;;;;;;;;5028735;28;20081;-67
2021/10/29 06:19:02;;;;;;;9.32;5.18;;;;;;;;;;5025882;28;20080;-66
2021/10/29 06:21:35;;;;;;;7.30;4.57;;;;;;;;;;5029034;28;20053;-68
2021/10/29 06:24:08;;;;;;;7.93;4.70;;;;;;;;;;5029220;28;20053;-69
2021/10/29 06:26:44;;;;;;;8.30;4.85;;;;;;;;;;5030995;28;20447;-66
2021/10/29 06:29:13;;;;;;;8.73;4.53;;;;;;;;;;5031424;28;20172;-66
2021/10/29 06:31:41;;;;;;;6.97;4.80;;;;;;;;;;5029625;28;20394;-66
2021/10/29 06:34:10;;;;;;;8.40;4.97;;;;;;;;;;5029388;28;20136;-70
2021/10/29 06:36:39;;;;;;;8.52;4.93;;;;;;;;;;5034434;28;20053;-77
2021/10/29 06:39:09;;;;;;;9.57;4.75;;;;;;;;;;5024092;28;20132;-72
2021/10/29 06:41:37;;;;;;;8.70;5.30;;;;;;;;;;5028822;28;20050;-68
2021/10/29 06:44:21;;;;;;;10.98;5.40;;;;;;;;;;5021257;28;20127;-66
2021/10/29 06:47:10;;;;;;;10.23;4.93;;;;;;;;;;5025029;28;20077;-67
2021/10/29 07:00:44;;;;;;;6.80;5.15;;;;;;;;;;4988113;28;20049;-66
2021/10/29 07:11:57;;;;;;;12.40;5.95;;;;;;;;;;5024609;28;20085;-67
2021/10/29 07:42:07;;;;;;;9.27;5.15;;;;;;;;;;5030574;28;20092;-69
2021/10/29 07:44:36;;;;;;;7.95;4.30;;;;;;;;;;5023189;28;20091;-66
2021/10/29 07:47:06;;;;;;;8.13;4.50;;;;;;;;;;5023570;28;20056;-66
2021/10/29 07:49:34;;;;;;;7.63;4.35;;;;;;;;;;5027295;28;20076;-66
2021/10/29 07:52:02;;;;;;;8.30;5.30;;;;;;;;;;5030286;28;20087;-66
2021/10/29 07:54:32;;;;;;;10.95;5.22;;;;;;;;;;5027395;28;20081;-66
2021/10/29 07:57:00;;;;;;;7.70;4.70;;;;;;;;;;5029508;28;20065;-68
2021/10/29 07:59:28;;;;;;;11.77;5.85;;;;;;;;;;5023536;28;20076;-66
2021/10/29 08:01:57;;;;;;;9.75;5.43;;;;;;;;;;5029791;28;20073;-66
2021/10/29 08:04:27;;;;;;;8.98;4.90;;;;;;;;;;5028374;28;20441;-71
2021/10/29 08:06:55;;;;;;;8.60;5.13;;;;;;;;;;5028439;28;20041;-69
2021/10/29 08:09:26;;;;;;;7.68;5.00;;;;;;;;;;5024802;28;20049;-65
2021/10/29 08:11:55;;;;;;;9.60;5.22;;;;;;;;;;5029445;28;20061;-73
2021/10/29 08:14:24;;;;;;;13.68;5.95;;;;;;;;;;5028789;28;20508;-66
2021/10/29 08:16:53;;;;;;;11.18;5.80;;;;;;;;;;5024572;28;20053;-69
2021/10/29 08:19:26;;;;;;;9.73;5.57;;;;;;;;;;5028000;28;20099;-68
2021/10/29 08:21:56;;;;;;;10.00;5.43;;;;;;;;;;5028855;28;20080;-65
2021/10/29 08:24:24;;;;;;;8.50;5.28;;;;;;;;;;5029456;28;20042;-65
2021/10/29 08:26:53;;;;;;;11.20;5.53;;;;;;;;;;5028258;28;20601;-69
2021/10/29 08:29:23;;;;;;;12.85;5.93;;;;;;;;;;5027695;28;20046;-71
2021/10/29 08:31:52;;;;;;;10.35;4.97;;;;;;;;;;5025826;28;20111;-69
2021/10/29 08:34:22;;;;;;;10.82;5.60;;;;;;;;;;5027858;28;20057;-69
2021/10/29 08:36:50;;;;;;;10.32;6.10;;;;;;;;;;5029353;28;20107;-67
2021/10/29 08:39:20;;;;;;;10.80;4.78;;;;;;;;;;5029277;28;20049;-68
2021/10/29 08:41:49;;;;;;;11.05;4.72;;;;;;;;;;5027514;28;20045;-66
2021/10/29 08:44:18;;;;;;;11.23;6.25;;;;;;;;;;5022222;28;20057;-75
2021/10/29 08:46:48;;;;;;;12.02;6.10;;;;;;;;;;5026997;28;20083;-71
2021/10/29 08:49:18;;;;;;;13.02;5.95;;;;;;;;;;5029246;28;20639;-65
2021/10/29 08:51:47;;;;;;;10.98;5.50;;;;;;;;;;5027426;28;20045;-67
2021/10/29 08:54:15;;;;;;;10.95;6.15;;;;;;;;;;5028153;28;20053;-70
2021/10/29 08:56:45;;;;;;;12.88;5.95;;;;;;;;;;5022531;28;20211;-71
2021/10/29 08:59:16;;;;;;;9.98;5.90;;;;;;;;;;5027576;28;20060;-66
2021/10/29 09:01:54;;;;;;;10.65;5.35;;;;;;;;;;5027037;28;20464;-71
2021/10/29 09:04:32;;;;;;;16.23;7.00;;;;;;;;;;5024755;28;20061;-66
2021/10/29 09:07:11;;;;;;;14.23;6.82;;;;;;;;;;5026519;28;20512;-67
2021/10/29 09:09:54;;;;;;;15.07;7.32;;;;;;;;;;5012642;28;20448;-66
2021/10/29 09:32:22;;;;;;;16.77;7.57;;;;;;;;;;5027430;28;20053;-67
2021/10/29 09:34:58;;;;;;;15.85;8.20;;;;;;;;;;5028000;28;20105;-71
2021/10/29 09:37:34;;;;;;;16.55;7.97;;;;;;;;;;5027230;28;20099;-68
2021/10/29 09:40:04;;;;;;;17.58;7.32;;;;;;;;;;5027712;28;20057;-66
2021/10/29 09:42:36;;;;;;;16.65;7.38;;;;;;;;;;5027601;28;20048;-72
2021/10/29 09:45:14;;;;;;;14.65;8.07;;;;;;;;;;5027522;28;20099;-65
2021/10/29 09:47:47;;;;;;;17.17;8.05;;;;;;;;;;5026300;28;20089;-65
2021/10/29 09:50:24;;;;;;;14.80;7.30;;;;;;;;;;5027119;28;20057;-69
2021/10/29 09:53:09;;;;;;;18.70;8.02;;;;;;;;;;5025198;28;20073;-71
2021/10/29 09:56:00;;;;;;;13.38;7.13;;;;;;;;;;5023072;28;20107;-73
2021/10/29 09:58:29;;;;;;;16.90;8.32;;;;;;;;;;5025251;28;20072;-65
2021/10/29 10:00:59;;;;;;;17.50;8.90;;;;;;;;;;5028225;28;20119;-69
2021/10/29 10:03:30;;;;;;;17.02;8.20;;;;;;;;;;5025518;28;20050;-66
2021/10/29 10:06:00;;;;;;;15.00;8.07;;;;;;;;;;5027810;28;20362;-68
2021/10/29 10:08:29;;;;;;;19.20;8.13;;;;;;;;;;5027141;28;20066;-65
2021/10/29 10:10:58;;;;;;;19.33;9.02;;;;;;;;;;5027429;28;20321;-74
2021/10/29 10:13:29;;;;;;;17.17;8.30;;;;;;;;;;5026257;28;20041;-75
2021/10/29 10:16:02;;;;;;;16.50;8.73;;;;;;;;;;5018765;28;20144;-69
2021/10/29 10:18:30;;;;;;;14.80;7.93;;;;;;;;;;5027624;28;20050;-73
2021/10/29 10:20:59;;;;;;;15.40;7.82;;;;;;;;;;5027437;28;20465;-65
2021/10/29 10:23:30;;;;;;;9.45;6.07;;;;;;;;;;5019844;28;20056;-67
2021/10/29 10:26:15;;;;;;;14.55;7.82;;;;;;;;;;5027753;28;20049;-65
2021/10/29 10:40:36;;;;;;;16.88;8.13;;;;;;;;;;5023699;28;20073;-66
2021/10/29 10:43:16;;;;;;;16.73;8.70;;;;;;;;;;5020021;28;20053;-65
2021/10/29 10:45:50;;;;;;;20.60;7.72;;;;;;;;;;5027361;28;20080;-65
2021/10/29 10:48:26;;;;;;;17.17;9.05;;;;;;;;;;5027890;28;20136;-67
2021/10/29 10:51:01;;;;;;;17.90;8.48;;;;;;;;;;5019188;28;20053;-65
2021/10/29 10:53:45;;;;;;;14.63;8.20;;;;;;;;;;5028733;28;20076;-69
2021/10/29 10:56:27;;;;;;;14.20;7.82;;;;;;;;;;5029953;28;20069;-65
2021/10/29 10:59:04;;;;;;;16.27;8.60;;;;;;;;;;5029278;28;20511;-69
2021/10/29 11:02:01;;;;;;;13.75;7.88;;;;;;;;;;5030361;28;20057;-69
2021/10/29 11:04:47;;;;;;;15.45;7.90;;;;;;;;;;5026430;28;20045;-67
2021/10/29 11:07:39;;;;;;;;;;;;;;;;;;5030036;28;20053;-67
2021/10/29 11:10:09;;;;;;;17.02;8.27;;;;;;;;;;5024311;28;19972;-74
2021/10/29 11:12:56;;;;;;;14.98;7.28;;;;;;;;;;5028987;28;20092;-68
2021/10/29 11:15:26;;;;;;;16.75;8.13;;;;;;;;;;5029892;28;20061;-66
2021/10/29 11:17:57;;;;;;;16.92;8.20;;;;;;;;;;5025549;28;20487;-70
2021/10/29 11:20:48;;;;;;;15.20;7.72;;;;;;;;;;5027695;28;20138;-67
2021/10/29 11:23:20;;;;;;;19.20;8.50;;;;;;;;;;5028812;28;20346;-68
2021/10/29 11:25:49;;;;;;;13.77;7.78;;;;;;;;;;5029369;28;20053;-66
2021/10/29 11:28:18;;;;;;;16.42;8.32;;;;;;;;;;5029566;28;20049;-75
2021/10/29 11:30:47;;;;;;;14.48;7.95;;;;;;;;;;5023587;28;20436;-65
2021/10/29 11:33:17;;;;;;;15.20;7.68;;;;;;;;;;5027920;28;20406;-68
2021/10/29 11:35:56;;;;;;;17.13;8.30;;;;;;;;;;5026661;28;20545;-65
2021/10/29 11:38:25;;;;;;;16.88;7.72;;;;;;;;;;5028768;28;20053;-67
2021/10/29 11:40:54;;;;;;;15.75;8.20;;;;;;;;;;5027086;28;20093;-65
2021/10/29 11:43:24;;;;;;;15.95;7.72;;;;;;;;;;5024414;28;20119;-69
2021/10/29 11:45:53;;;;;;;19.98;8.32;;;;;;;;;;5024992;28;20152;-69
2021/10/29 11:48:22;;;;;;;12.63;7.50;;;;;;;;;;5027738;28;20088;-67
2021/10/29 11:51:04;;;;;;;14.18;7.97;;;;;;;;;;5026266;28;20081;-65
2021/10/29 11:53:35;;;;;;;16.27;8.98;;;;;;;;;;5023774;28;20163;-69
2021/10/29 11:56:10;;;;;;;19.58;9.30;;;;;;;;;;5021678;28;20119;-65
2021/10/29 11:58:49;;;;;;;15.40;7.93;;;;;;;;;;5024271;28;20492;-70
2021/10/29 12:01:30;;;;;;;15.30;8.20;;;;;;;;;;5020142;28;20053;-70
2021/10/29 12:09:33;;;;;;;16.60;9.18;;;;;;;;;;5024914;28;20068;-65
2021/10/29 12:12:06;;;;;;;21.55;9.55;;;;;;;;;;5013492;28;20091;-64
2021/10/29 12:14:37;;;;;;;19.92;9.60;;;;;;;;;;5025628;28;20220;-63
2021/10/29 12:17:07;;;;;;;19.83;9.65;;;;;;;;;;5026941;28;20049;-64
2021/10/29 12:19:37;;;;;;;17.75;8.85;;;;;;;;;;5026357;28;20560;-64
2021/10/29 12:22:17;;;;;;;23.83;10.27;;;;;;;;;;5027886;28;20088;-64
2021/10/29 12:24:51;;;;;;;19.70;9.68;;;;;;;;;;5004893;28;20519;-65
2021/10/29 12:27:26;;;;;;;17.90;8.80;;;;;;;;;;5027279;28;20060;-69
2021/10/29 12:30:13;;;;;;;21.35;9.82;;;;;;;;;;5028052;28;20782;-66
2021/10/29 12:33:01;;;;;;;19.75;9.65;;;;;;;;;;5024536;28;20038;-70
2021/10/29 13:03:47;;;;;;;17.67;9.23;;;;;;;;;;5027744;28;20133;-65
2021/10/29 13:06:16;;;;;;;16.70;7.68;;;;;;;;;;5022382;28;20053;-66
2021/10/29 13:08:49;;;;;;;13.80;7.55;;;;;;;;;;5022761;28;20123;-65
2021/10/29 13:11:21;;;;;;;15.80;8.57;;;;;;;;;;5026593;28;20067;-63
2021/10/29 13:13:54;;;;;;;18.17;8.82;;;;;;;;;;5027533;28;20172;-69
2021/10/29 13:16:22;;;;;;;17.75;9.52;;;;;;;;;;5029631;28;20060;-64
2021/10/29 13:19:10;;;;;;;19.85;8.05;;;;;;;;;;5026326;28;20528;-67
2021/10/29 13:24:46;;;;;;;16.15;7.95;;;;;;;;;;4955723;28;20035;-64
2021/10/29 14:03:51;;;;;;;19.77;10.07;;;;;;;;;;5022051;28;20050;-64
2021/10/29 14:28:39;;;;;;;17.38;8.95;;;;;;;;;;5028146;28;20481;-66
2021/10/29 14:31:11;;;;;;;17.05;8.23;;;;;;;;;;5030563;28;20457;-63
2021/10/29 14:33:47;;;;;;;15.95;8.90;;;;;;;;;;5027401;28;20069;-68
2021/10/29 14:36:18;;;;;;;17.02;8.85;;;;;;;;;;5019002;28;20041;-66
2021/10/29 14:39:03;;;;;;;18.95;9.38;;;;;;;;;;5029096;28;20338;-64
2021/10/29 14:41:38;;;;;;;20.35;8.73;;;;;;;;;;5018301;28;20053;-66
2021/10/29 14:44:12;;;;;;;17.45;8.50;;;;;;;;;;5033083;28;20081;-66
2021/10/29 14:46:56;;;;;;;18.17;9.18;;;;;;;;;;5025975;28;20110;-63
2021/10/29 14:52:55;;;;;;;16.08;9.00;;;;;;;;;;5076155;27;20399;-62
2021/10/29 15:04:11;;;;;;;19.10;9.85;;;;;;;;;;5033563;28;21752;-61
2021/10/29 15:27:02;;;;;;;21.02;9.93;;;;;;;;;;5009498;28;20056;-63
2021/10/29 15:29:38;;;;;;;19.02;9.45;;;;;;;;;;5021978;28;20982;-63
2021/10/29 15:46:04;;;;;;;22.98;10.60;;;;;;;;;;5037596;28;20575;-70
2021/10/29 15:48:41;;;;;;;19.52;9.77;;;;;;;;;;5043199;28;20060;-63
2021/10/29 15:51:10;;;;;;;21.73;10.18;;;;;;;;;;5042742;28;20149;-63
2021/10/29 15:53:41;;;;;;;22.25;11.07;;;;;;;;;;5042301;28;20310;-63
2021/10/29 15:56:16;;;;;;;21.55;9.82;;;;;;;;;;5028420;28;20054;-64
2021/10/29 15:58:53;;;;;;;22.30;10.15;;;;;;;;;;5029629;28;20248;-66
2021/10/29 16:01:27;;;;;;;24.83;10.85;;;;;;;;;;5038558;28;20072;-63
2021/10/29 16:16:57;;;;;;;24.33;11.48;;;;;;;;;;5027057;28;20056;-68
2021/10/29 16:17:58;;;;;;;22.58;10.93;;;;;;;;;;5024656;28;20107;-70
2021/10/29 16:20:26;;;;;;;22.25;10.60;;;;;;;;;;5018891;28;20111;-67
2021/10/29 16:22:57;;;;;;;22.83;9.82;;;;;;;;;;5021598;28;20080;-67
2021/10/29 16:25:30;;;;;;;19.38;9.75;;;;;;;;;;5024690;28;20054;-64
2021/10/29 16:28:00;;;;;;;23.42;10.15;;;;;;;;;;5025344;28;20045;-64
2021/10/29 16:30:32;;;;;;;22.95;10.55;;;;;;;;;;5023433;28;20080;-63
2021/10/29 16:33:22;;;;;;;21.95;10.52;;;;;;;;;;5024294;28;20144;-66
2021/10/29 16:35:51;;;;;;;22.40;11.20;;;;;;;;;;5022867;28;20041;-64
2021/10/29 16:38:20;;;;;;;25.67;10.90;;;;;;;;;;5019357;28;20068;-63
2021/10/29 16:40:49;;;;;;;23.75;9.57;;;;;;;;;;5022335;28;20107;-67
2021/10/29 16:43:18;;;;;;;21.35;9.48;;;;;;;;;;5019642;28;20045;-66
2021/10/29 16:45:48;;;;;;;21.83;10.18;;;;;;;;;;5026290;28;20483;-65
2021/10/29 16:48:17;;;;;;;21.05;10.18;;;;;;;;;;5025581;28;20077;-65
2021/10/29 16:50:47;;;;;;;20.88;10.65;;;;;;;;;;5010424;28;20437;-65
2021/10/29 16:53:16;;;;;;;23.55;10.70;;;;;;;;;;5023934;28;20160;-63
2021/10/29 16:55:45;;;;;;;19.65;9.30;;;;;;;;;;5024600;28;20497;-67
2021/10/29 16:58:14;;;;;;;25.73;10.55;;;;;;;;;;5022356;28;20100;-63
2021/10/29 17:00:43;;;;;;;23.08;9.95;;;;;;;;;;5025474;28;20099;-63
2021/10/29 17:03:14;;;;;;;22.52;10.52;;;;;;;;;;5026079;28;20135;-66
2021/10/29 17:05:43;;;;;;;22.63;10.35;;;;;;;;;;5026364;28;20049;-66
2021/10/29 17:08:13;;;;;;;21.60;10.63;;;;;;;;;;5015312;28;20049;-64
2021/10/29 17:10:41;;;;;;;24.60;10.35;;;;;;;;;;5024140;28;20497;-69
2021/10/29 17:13:11;;;;;;;21.83;11.20;;;;;;;;;;5019671;28;20432;-63
2021/10/29 17:15:40;;;;;;;20.63;10.07;;;;;;;;;;5020250;28;20058;-62
2021/10/29 17:18:08;;;;;;;22.30;10.15;;;;;;;;;;5022706;28;20095;-67
2021/10/29 17:20:38;;;;;;;21.15;9.77;;;;;;;;;;5020407;28;20099;-67
2021/10/29 17:23:07;;;;;;;20.77;10.32;;;;;;;;;;5024797;28;20049;-66
2021/10/29 17:25:36;;;;;;;21.27;10.32;;;;;;;;;;5024731;28;20054;-64
2021/10/29 17:28:04;;;;;;;20.85;10.05;;;;;;;;;;5020221;28;20417;-64
2021/10/29 17:30:33;;;;;;;27.58;10.93;;;;;;;;;;5025785;28;20056;-66
2021/10/29 17:33:02;;;;;;;28.00;11.55;;;;;;;;;;5017770;28;20136;-68
2021/10/29 17:35:31;;;;;;;24.75;11.15;;;;;;;;;;5019200;28;20081;-64
2021/10/29 17:38:01;;;;;;;20.98;11.27;;;;;;;;;;5010402;28;20049;-65
2021/10/29 17:40:30;;;;;;;24.17;10.98;;;;;;;;;;5021738;28;20107;-63
2021/10/29 17:42:59;;;;;;;25.98;10.25;;;;;;;;;;5023158;28;20045;-73
2021/10/29 17:45:28;;;;;;;25.80;11.85;;;;;;;;;;5015605;28;20129;-68
2021/10/29 17:47:56;;;;;;;25.50;11.38;;;;;;;;;;5025117;28;20057;-68
2021/10/29 17:50:25;;;;;;;30.27;11.70;;;;;;;;;;5024226;28;20137;-66
2021/10/29 17:52:53;;;;;;;25.88;12.30;;;;;;;;;;5024795;28;20050;-63
2021/10/29 17:55:25;;;;;;;24.23;12.13;;;;;;;;;;5024880;28;20099;-72
2021/10/29 17:57:53;;;;;;;26.35;11.38;;;;;;;;;;5006322;28;20073;-66
2021/10/29 18:00:21;;;;;;;21.58;10.85;;;;;;;;;;5015494;28;20128;-67
2021/10/29 18:02:50;;;;;;;22.27;10.82;;;;;;;;;;5014810;28;20136;-67
2021/10/29 18:05:19;;;;;;;27.15;12.32;;;;;;;;;;5018809;28;20049;-69
2021/10/29 18:07:53;;;;;;;25.27;11.68;;;;;;;;;;5017577;28;20096;-69
2021/10/29 18:10:24;;;;;;;24.35;11.20;;;;;;;;;;5025546;28;20041;-66
2021/10/29 18:12:52;;;;;;;27.20;10.88;;;;;;;;;;5022674;28;20152;-68
2021/10/29 18:15:21;;;;;;;28.13;11.80;;;;;;;;;;5022597;28;20068;-72
2021/10/29 18:17:49;;;;;;;26.33;12.18;;;;;;;;;;5010694;28;20516;-71
2021/10/29 18:20:18;;;;;;;27.95;11.38;;;;;;;;;;5019510;28;20041;-70
2021/10/29 18:22:46;;;;;;;23.92;11.45;;;;;;;;;;5025404;28;20050;-67
2021/10/29 18:25:15;;;;;;;33.40;12.82;;;;;;;;;;5022392;28;20053;-65
2021/10/29 18:27:45;;;;;;;23.80;11.93;;;;;;;;;;5022650;28;20060;-67
2021/10/29 18:30:18;;;;;;;26.95;12.32;;;;;;;;;;5015157;28;20053;-66
2021/10/29 18:32:46;;;;;;;28.30;12.52;;;;;;;;;;5022561;28;20398;-67
2021/10/29 18:35:14;;;;;;;28.40;12.45;;;;;;;;;;5019674;28;20053;-66
2021/10/29 18:37:43;;;;;;;24.67;11.48;;;;;;;;;;5020310;28;20049;-69
2021/10/29 18:40:12;;;;;;;27.33;12.15;;;;;;;;;;5020729;28;20095;-69
2021/10/29 18:42:40;;;;;;;27.77;12.13;;;;;;;;;;5023890;28;20108;-67
2021/10/29 18:45:11;;;;;;;22.70;10.43;;;;;;;;;;5022521;28;20547;-65
2021/10/29 18:47:39;;;;;;;27.48;11.35;;;;;;;;;;5014014;28;20104;-65